createdAt,value
2019-04-16T00:00:19.023Z,44.10
2019-04-16T00:02:53.989Z,48.97
2019-04-16T00:05:32.781Z,44.13
2019-04-16T00:08:27.345Z,30.43
2019-04-16T00:10:56.546Z,32.57
2019-04-16T00:13:50.537Z,37.00
2019-04-16T00:16:22.283Z,37.40
2019-04-16T00:18:57.852Z,49.73
2019-04-16T00:21:46.784Z,30.77
2019-04-16T00:24:33.381Z,30.93
2019-04-16T00:27:05.305Z,30.60
2019-04-16T00:29:39.587Z,36.83
2019-04-16T00:32:22.444Z,48.13
2019-04-16T00:34:54.336Z,31.87
2019-04-16T00:37:26.199Z,40.70
2019-04-16T00:39:58.070Z,49.27
2019-04-16T00:42:30.275Z,65.83
2019-04-16T00:45:02.158Z,46.40
2019-04-16T00:47:35.183Z,49.93
2019-04-16T00:50:07.147Z,51.07
2019-04-16T00:52:38.985Z,38.33
2019-04-16T00:55:13.677Z,41.77
2019-04-16T00:57:48.397Z,39.63
2019-04-16T01:00:18.060Z,36.17
2019-04-16T01:02:51.459Z,34.60
2019-04-16T01:05:23.316Z,69.10
2019-04-16T01:07:55.179Z,70.93
2019-04-16T01:10:27.343Z,44.17
2019-04-16T01:12:59.206Z,42.20
2019-04-16T01:15:32.804Z,28.83
2019-04-16T01:18:07.850Z,28.97
2019-04-16T01:20:40.400Z,22.93
2019-04-16T01:23:11.626Z,25.67
2019-04-16T01:25:43.494Z,34.17
2019-04-16T01:28:18.307Z,26.23
2019-04-16T01:31:08.994Z,28.03
2019-04-16T01:34:00.784Z,29.63
2019-04-16T01:36:54.961Z,34.87
2019-04-16T01:39:28.309Z,29.47
2019-04-16T01:42:00.589Z,35.17
2019-04-16T01:44:32.742Z,33.60
2019-04-16T01:47:05.288Z,26.43
2019-04-16T01:49:39.288Z,26.73
2019-04-16T01:52:10.811Z,21.50
2019-04-16T01:54:42.691Z,24.30
2019-04-16T01:57:14.476Z,30.07
2019-04-16T01:59:46.264Z,28.27
2019-04-16T02:02:18.059Z,22.40
2019-04-16T02:04:52.042Z,24.57
2019-04-16T02:07:27.701Z,22.27
2019-04-16T02:09:58.028Z,26.40
2019-04-16T02:12:29.924Z,24.53
2019-04-16T02:15:01.777Z,32.43
2019-04-16T02:17:35.054Z,35.03
2019-04-16T02:20:07.573Z,32.83
2019-04-16T02:22:39.472Z,27.53
2019-04-16T02:25:11.264Z,30.93
2019-04-16T02:27:43.113Z,22.77
2019-04-16T02:30:14.883Z,21.00
2019-04-16T02:32:46.728Z,20.87
2019-04-16T02:35:18.479Z,31.30
2019-04-16T02:37:50.307Z,23.90
2019-04-16T02:40:22.101Z,27.23
2019-04-16T02:42:55.010Z,30.27
2019-04-16T02:45:27.181Z,29.30
2019-04-16T02:47:58.865Z,25.33
2019-04-16T02:50:52.636Z,26.57
2019-04-16T02:53:59.766Z,26.17
2019-04-16T02:56:54.302Z,25.70
2019-04-16T02:59:35.314Z,24.37
2019-04-16T03:02:26.728Z,25.87
2019-04-16T03:05:09.118Z,18.37
2019-04-16T03:07:41.963Z,20.57
2019-04-16T03:10:14.011Z,23.03
2019-04-16T03:12:45.875Z,63.70
2019-04-16T03:15:20.133Z,102.97
2019-04-16T03:17:51.925Z,116.33
2019-04-16T03:20:24.656Z,49.77
2019-04-16T03:22:56.858Z,30.47
2019-04-16T03:25:28.616Z,24.67
2019-04-16T03:28:00.575Z,22.47
2019-04-16T03:30:40.259Z,39.50
2019-04-16T03:33:12.750Z,24.27
2019-04-16T03:35:39.405Z,22.47
2019-04-16T03:38:11.094Z,30.80
2019-04-16T03:40:42.869Z,50.23
2019-04-16T03:43:14.729Z,59.80
2019-04-16T03:45:46.484Z,57.53
2019-04-16T03:48:20.639Z,39.47
2019-04-16T03:50:51.725Z,28.73
2019-04-16T03:53:23.473Z,29.87
2019-04-16T03:55:58.299Z,56.73
2019-04-16T03:58:28.599Z,84.97
2019-04-16T04:01:00.559Z,122.57
2019-04-16T04:03:32.415Z,174.23
2019-04-16T04:06:06.816Z,127.60
2019-04-16T04:08:38.001Z,71.97
2019-04-16T04:11:10.679Z,45.70
2019-04-16T04:13:42.925Z,40.00
2019-04-16T04:16:15.663Z,44.13
2019-04-16T04:18:47.465Z,42.60
2019-04-16T04:21:22.101Z,50.77
2019-04-16T04:23:52.795Z,33.87
2019-04-16T04:26:24.474Z,38.70
2019-04-16T04:28:57.373Z,38.83
2019-04-16T04:31:32.104Z,32.70
2019-04-16T04:34:02.456Z,28.33
2019-04-16T04:36:36.437Z,30.83
2019-04-16T04:39:10.058Z,35.50
2019-04-16T04:41:41.362Z,45.07
2019-04-16T04:44:13.166Z,49.43
2019-04-16T04:46:46.093Z,63.23
2019-04-16T04:49:18.734Z,45.87
2019-04-16T04:51:50.592Z,45.73
2019-04-16T04:54:23.484Z,51.73
2019-04-16T04:56:56.419Z,57.27
2019-04-16T04:59:28.889Z,75.13
2019-04-16T05:02:00.898Z,50.10
2019-04-16T05:04:39.618Z,46.23
2019-04-16T05:07:11.573Z,57.93
2019-04-16T05:09:43.362Z,87.83
2019-04-16T05:12:18.097Z,42.00
2019-04-16T05:14:57.228Z,55.73
2019-04-16T05:17:28.593Z,46.83
2019-04-16T05:20:00.556Z,33.60
2019-04-16T05:22:33.112Z,29.37
2019-04-16T05:25:05.161Z,24.87
2019-04-16T05:27:40.235Z,29.20
2019-04-16T05:30:10.445Z,39.47
2019-04-16T05:32:42.248Z,41.97
2019-04-16T05:35:14.114Z,60.63
2019-04-16T05:37:48.528Z,50.77
2019-04-16T05:40:19.550Z,72.13
2019-04-16T05:42:52.725Z,58.10
2019-04-16T05:45:25.552Z,49.17
2019-04-16T05:47:57.442Z,41.43
2019-04-16T05:50:29.940Z,38.20
2019-04-16T05:53:01.977Z,44.07
2019-04-16T05:55:43.036Z,42.90
2019-04-16T05:58:14.886Z,46.73
2019-04-16T06:01:10.476Z,48.00
2019-04-16T06:03:42.224Z,41.13
2019-04-16T06:06:14.086Z,35.00
2019-04-16T06:08:45.877Z,34.97
2019-04-16T06:11:28.632Z,37.60
2019-04-16T06:14:09.980Z,35.80
2019-04-16T06:17:00.758Z,41.13
2019-04-16T06:19:54.529Z,43.67
2019-04-16T06:22:43.903Z,90.20
2019-04-16T06:25:47.123Z,45.90
2019-04-16T06:28:31.764Z,50.17
2019-04-16T06:31:21.131Z,46.30
2019-04-16T06:34:13.276Z,55.90
2019-04-16T06:36:56.953Z,54.53
2019-04-16T06:40:00.930Z,41.43
2019-04-16T06:42:45.516Z,53.47
2019-04-16T06:45:29.300Z,47.70
2019-04-16T06:48:12.883Z,50.87
2019-04-16T06:50:58.178Z,76.37
2019-04-16T06:53:41.438Z,50.83
2019-04-16T06:56:37.458Z,43.17
2019-04-16T06:59:29.438Z,50.03
2019-04-16T07:02:24.466Z,58.27
2019-04-16T07:05:26.651Z,47.17
2019-04-16T07:08:17.760Z,58.10
2019-04-16T07:10:59.693Z,48.43
2019-04-16T07:13:32.053Z,48.87
2019-04-16T07:16:03.987Z,75.00
2019-04-16T07:18:38.720Z,57.70
2019-04-16T07:21:09.259Z,46.60
2019-04-16T07:23:41.446Z,44.70
2019-04-16T07:26:14.814Z,52.43
2019-04-16T07:28:58.758Z,55.87
2019-04-16T07:31:53.080Z,75.53
2019-04-16T07:34:33.397Z,53.57
2019-04-16T07:37:10.159Z,44.73
2019-04-16T07:39:55.489Z,43.90
2019-04-16T07:43:03.976Z,43.87
2019-04-16T07:45:57.466Z,32.97
2019-04-16T07:48:55.644Z,34.33
2019-04-16T07:51:47.427Z,36.37
2019-04-16T07:54:54.241Z,33.77
2019-04-16T07:57:43.616Z,30.80
2019-04-16T08:00:20.231Z,32.43
2019-04-16T08:03:10.325Z,27.70
2019-04-16T08:05:45.007Z,44.23
2019-04-16T08:08:34.769Z,30.90
2019-04-16T08:11:18.870Z,26.70
2019-04-16T08:13:51.866Z,28.27
2019-04-16T08:16:47.609Z,55.63
2019-04-16T08:19:16.156Z,29.33
2019-04-16T08:22:05.680Z,34.00
2019-04-16T08:24:48.956Z,31.30
2019-04-16T08:27:38.083Z,35.10
2019-04-16T08:30:13.128Z,27.10
2019-04-16T08:33:02.834Z,27.00
2019-04-16T08:35:37.632Z,26.60
2019-04-16T08:38:27.078Z,28.43
2019-04-16T08:41:01.755Z,38.93
2019-04-16T08:43:36.510Z,25.27
2019-04-16T08:46:11.831Z,20.97
2019-04-16T08:48:48.959Z,18.70
2019-04-16T08:51:30.110Z,23.07
2019-04-16T08:54:17.693Z,21.30
2019-04-16T08:57:06.229Z,16.77
2019-04-16T08:59:55.794Z,17.87
2019-04-16T09:02:30.350Z,22.30
2019-04-16T09:05:05.890Z,19.73
2019-04-16T09:07:41.831Z,27.17
2019-04-16T09:10:23.706Z,18.47
2019-04-16T09:13:08.466Z,20.93
2019-04-16T09:15:58.057Z,31.43
2019-04-16T09:19:13.532Z,21.30
2019-04-16T09:21:45.409Z,21.57
2019-04-16T09:24:29.785Z,20.70
2019-04-16T09:27:07.064Z,22.67
2019-04-16T09:30:27.517Z,15.53
2019-04-16T09:33:09.621Z,11.70
2019-04-16T09:36:13.733Z,22.00
2019-04-16T09:38:51.057Z,14.57
2019-04-16T09:41:42.882Z,28.63
2019-04-16T09:44:35.327Z,18.00
2019-04-16T09:47:06.047Z,17.70
2019-04-16T09:49:40.692Z,24.73
2019-04-16T09:52:30.019Z,75.97
2019-04-16T09:55:08.126Z,30.03
2019-04-16T09:57:59.438Z,56.37
2019-04-16T10:00:34.727Z,28.07
2019-04-16T10:03:31.462Z,40.13
2019-04-16T10:06:20.621Z,23.70
2019-04-16T10:08:52.503Z,33.87
2019-04-16T10:11:27.042Z,63.83
2019-04-16T10:14:01.805Z,54.97
2019-04-16T10:16:36.492Z,54.00
2019-04-16T10:19:26.029Z,52.03
2019-04-16T10:22:00.781Z,48.57
2019-04-16T10:24:52.888Z,43.50
2019-04-16T10:27:44.220Z,73.37
2019-04-16T10:30:22.534Z,56.63
2019-04-16T10:32:54.376Z,21.57
2019-04-16T10:35:26.930Z,71.97
2019-04-16T10:38:03.168Z,16.00
2019-04-16T10:40:57.968Z,31.67
2019-04-16T10:44:24.446Z,45.97
2019-04-16T10:47:19.750Z,42.93
2019-04-16T10:50:23.525Z,15.27
2019-04-16T10:53:16.478Z,15.87
2019-04-16T10:56:05.781Z,19.07
2019-04-16T10:59:06.610Z,16.80
2019-04-16T11:02:15.096Z,58.70
2019-04-16T11:05:11.556Z,47.50
2019-04-16T11:07:44.263Z,31.60
2019-04-16T11:10:16.114Z,22.93
2019-04-16T11:12:50.830Z,15.20
2019-04-16T11:15:40.405Z,12.50
2019-04-16T11:18:29.870Z,20.07
2019-04-16T11:21:01.992Z,17.00
2019-04-16T11:23:51.389Z,16.07
2019-04-16T11:26:29.259Z,11.23
2019-04-16T11:29:04.092Z,13.07
2019-04-16T11:31:39.247Z,12.93
2019-04-16T11:34:12.778Z,13.17
2019-04-16T11:36:44.648Z,16.30
2019-04-16T11:39:16.439Z,14.03
2019-04-16T11:41:54.037Z,15.80
2019-04-16T11:44:28.730Z,63.80
2019-04-16T11:47:04.814Z,38.10
2019-04-16T11:49:40.442Z,13.80
2019-04-16T11:52:15.429Z,17.03
2019-04-16T11:54:47.760Z,21.53
2019-04-16T11:57:36.995Z,13.50
2019-04-16T12:00:13.912Z,30.50
2019-04-16T12:03:10.358Z,9.77
2019-04-16T12:06:27.823Z,78.62
2019-04-16T12:09:28.979Z,11.33
2019-04-16T12:12:24.793Z,19.50
2019-04-16T12:15:13.925Z,20.52
2019-04-16T12:18:11.233Z,11.13
2019-04-16T12:20:45.304Z,19.73
2019-04-16T12:24:06.812Z,59.30
2019-04-16T12:27:27.587Z,38.33
2019-04-16T12:30:16.757Z,33.50
2019-04-16T12:33:07.734Z,16.97
2019-04-16T12:36:04.890Z,48.53
2019-04-16T12:39:22.219Z,35.50
2019-04-16T12:42:23.992Z,41.43
2019-04-16T12:45:23.061Z,22.43
2019-04-16T12:48:18.642Z,76.77
2019-04-16T12:51:24.703Z,10.10
2019-04-16T12:54:25.619Z,91.73
2019-04-16T12:57:16.602Z,73.47
2019-04-16T13:00:12.739Z,95.40
2019-04-16T13:03:17.765Z,22.53
2019-04-16T13:06:37.529Z,20.30
2019-04-16T13:09:34.086Z,71.07
2019-04-16T13:12:32.831Z,66.67
2019-04-16T13:15:15.845Z,62.57
2019-04-16T13:18:05.992Z,53.27
2019-04-16T13:21:23.237Z,56.63
2019-04-16T13:24:02.323Z,19.27
2019-04-16T13:27:04.530Z,19.63
2019-04-16T13:29:36.610Z,11.30
2019-04-16T13:32:17.468Z,63.13
2019-04-16T13:34:58.825Z,30.50
2019-04-16T13:37:36.940Z,19.03
2019-04-16T13:40:10.840Z,85.63
2019-04-16T13:42:42.967Z,30.53
2019-04-16T13:45:33.722Z,20.57
2019-04-16T13:48:33.828Z,18.97
2019-04-16T13:51:12.656Z,21.30
2019-04-16T13:54:00.308Z,53.30
2019-04-16T13:56:41.057Z,27.50
2019-04-16T13:59:30.216Z,15.83
2019-04-16T14:02:25.673Z,10.47
2019-04-16T14:05:03.116Z,35.33
2019-04-16T14:07:31.708Z,23.57
2019-04-16T14:10:03.548Z,20.87
2019-04-16T14:12:42.377Z,19.57
2019-04-16T14:15:09.413Z,73.77
2019-04-16T14:17:52.369Z,17.97
2019-04-16T14:20:18.504Z,25.53
2019-04-16T14:22:53.324Z,23.33
2019-04-16T14:25:23.936Z,22.93
2019-04-16T14:28:01.164Z,50.10
2019-04-16T14:30:35.722Z,25.20
2019-04-16T14:33:07.834Z,35.07
2019-04-16T14:35:41.113Z,20.17
2019-04-16T14:38:15.677Z,38.03
2019-04-16T14:40:47.535Z,13.83
2019-04-16T14:43:29.200Z,27.13
2019-04-16T14:46:00.109Z,60.77
2019-04-16T14:48:32.223Z,65.27
2019-04-16T14:51:05.325Z,201.20
2019-04-16T14:53:51.185Z,16.97
2019-04-16T14:56:30.854Z,31.37
2019-04-16T14:59:35.111Z,20.83
2019-04-16T15:02:21.734Z,29.23
2019-04-16T15:05:27.517Z,55.27
2019-04-16T15:08:18.341Z,51.10
2019-04-16T15:11:08.004Z,52.13
2019-04-16T15:14:01.968Z,28.63
2019-04-16T15:16:39.843Z,27.77
2019-04-16T15:19:28.953Z,32.40
2019-04-16T15:22:18.142Z,25.40
2019-04-16T15:25:15.001Z,22.60
2019-04-16T15:28:08.962Z,21.33
2019-04-16T15:31:01.595Z,104.87
2019-04-16T15:33:50.244Z,43.20
2019-04-16T15:36:31.870Z,65.47
2019-04-16T15:39:13.619Z,101.50
2019-04-16T15:42:19.994Z,21.35
2019-04-16T15:45:19.675Z,48.23
2019-04-16T15:48:19.011Z,29.87
2019-04-16T15:51:13.549Z,89.13
2019-04-16T15:53:50.520Z,47.13
2019-04-16T15:56:51.495Z,42.98
2019-04-16T15:59:33.234Z,96.20
2019-04-16T16:02:22.362Z,32.63
2019-04-16T16:05:05.474Z,41.68
2019-04-16T16:07:43.205Z,25.20
2019-04-16T16:10:20.346Z,20.55
2019-04-16T16:12:53.591Z,73.70
2019-04-16T16:15:25.744Z,67.85
2019-04-16T16:18:01.355Z,81.22
2019-04-16T16:20:35.054Z,40.73
2019-04-16T16:23:07.527Z,108.95
2019-04-16T16:25:41.385Z,105.70
2019-04-16T16:28:13.019Z,70.97
2019-04-16T16:30:44.858Z,54.58
2019-04-16T16:33:16.796Z,137.62
2019-04-16T16:35:57.762Z,97.17
2019-04-16T16:38:22.375Z,55.10
2019-04-16T16:40:54.459Z,264.48
2019-04-16T16:43:26.547Z,118.65
2019-04-16T16:46:32.830Z,217.03
2019-04-16T16:49:04.998Z,169.32
2019-04-16T16:51:41.302Z,117.13
2019-04-16T16:54:20.486Z,82.50
2019-04-16T16:57:18.475Z,103.12
2019-04-16T16:59:54.919Z,119.50
2019-04-16T17:02:40.475Z,115.62
2019-04-16T17:05:16.961Z,124.15
2019-04-16T17:07:50.669Z,99.65
2019-04-16T17:10:22.778Z,138.43
2019-04-16T17:12:54.723Z,103.27
2019-04-16T17:15:26.570Z,92.10
2019-04-16T17:17:58.614Z,66.37
2019-04-16T17:20:30.834Z,233.17
2019-04-16T17:23:04.143Z,131.33
2019-04-16T17:25:37.185Z,128.43
2019-04-16T17:28:09.333Z,168.87
2019-04-16T17:30:41.458Z,157.03
2019-04-16T17:33:13.407Z,173.57
2019-04-16T17:35:46.469Z,109.60
2019-04-16T17:38:19.380Z,150.47
2019-04-16T17:40:59.112Z,97.63
2019-04-16T17:43:43.048Z,124.73
2019-04-16T17:46:40.027Z,107.90
2019-04-16T17:49:40.001Z,164.47
2019-04-16T17:52:39.597Z,172.37
2019-04-16T17:55:43.826Z,127.33
2019-04-16T17:58:29.503Z,89.30
2019-04-16T18:01:32.585Z,91.27
2019-04-16T18:04:23.476Z,104.00
2019-04-16T18:07:15.686Z,153.57
2019-04-16T18:10:15.333Z,160.00
2019-04-16T18:12:59.430Z,131.60
2019-04-16T18:15:49.029Z,82.30
2019-04-16T18:18:32.349Z,66.27
2019-04-16T18:21:21.652Z,87.70
2019-04-16T18:24:01.911Z,93.83
2019-04-16T18:26:43.862Z,83.77
2019-04-16T18:29:35.419Z,89.77
2019-04-16T18:32:30.850Z,103.57
2019-04-16T18:35:21.016Z,110.90
2019-04-16T18:37:59.046Z,106.00
2019-04-16T18:41:04.016Z,133.57
2019-04-16T18:44:12.670Z,121.03
2019-04-16T18:47:05.042Z,132.60
2019-04-16T18:49:40.025Z,134.50
2019-04-16T18:52:12.006Z,142.73
2019-04-16T18:54:45.999Z,166.13
2019-04-16T18:57:19.438Z,186.27
2019-04-16T18:59:51.371Z,164.93
2019-04-16T19:02:25.408Z,174.43
2019-04-16T19:04:57.684Z,155.07
2019-04-16T19:07:29.754Z,131.53
2019-04-16T19:10:01.758Z,154.50
2019-04-16T19:12:33.615Z,135.33
2019-04-16T19:15:05.898Z,136.17
2019-04-16T19:17:37.858Z,188.27
2019-04-16T19:20:09.747Z,181.50
2019-04-16T19:22:41.847Z,177.50
2019-04-16T19:25:13.784Z,171.73
2019-04-16T19:27:48.737Z,166.03
2019-04-16T19:30:22.667Z,219.73
2019-04-16T19:32:52.853Z,225.20
2019-04-16T19:35:25.996Z,291.93
2019-04-16T19:37:57.933Z,179.33
2019-04-16T19:40:30.146Z,199.27
2019-04-16T19:43:03.425Z,194.53
2019-04-16T19:45:35.479Z,198.57
2019-04-16T19:48:07.433Z,254.80
2019-04-16T19:50:39.309Z,251.70
2019-04-16T19:53:14.897Z,252.03
2019-04-16T19:55:46.630Z,268.67
2019-04-16T19:58:22.042Z,264.93
2019-04-16T20:00:59.947Z,263.13
2019-04-16T20:03:34.135Z,237.97
2019-04-16T20:06:06.841Z,247.17
2019-04-16T20:08:42.446Z,219.33
2019-04-16T20:11:20.378Z,217.63
2019-04-16T20:13:51.306Z,217.13
2019-04-16T20:16:24.182Z,183.70
2019-04-16T20:18:57.484Z,188.80
2019-04-16T20:21:31.305Z,219.23
2019-04-16T20:24:03.891Z,153.13
2019-04-16T20:26:40.205Z,148.93
2019-04-16T20:29:13.495Z,128.60
2019-04-16T20:31:46.701Z,111.27
2019-04-16T20:34:19.022Z,114.43
2019-04-16T20:36:52.201Z,111.13
2019-04-16T20:39:25.068Z,153.03
2019-04-16T20:41:59.419Z,130.90
2019-04-16T20:44:32.936Z,110.97
2019-04-16T20:47:07.998Z,91.33
2019-04-16T20:49:38.535Z,85.20
2019-04-16T20:52:10.463Z,96.17
2019-04-16T20:54:48.542Z,79.60
2019-04-16T20:57:25.428Z,90.30
2019-04-16T20:59:54.202Z,74.90
2019-04-16T21:02:28.057Z,92.40
2019-04-16T21:05:02.743Z,71.40
2019-04-16T21:07:34.967Z,67.53
2019-04-16T21:10:07.308Z,58.37
2019-04-16T21:12:45.063Z,54.00
2019-04-16T21:15:13.900Z,77.97
2019-04-16T21:17:45.862Z,97.53
2019-04-16T21:20:20.291Z,74.70
2019-04-16T21:22:51.246Z,70.17
2019-04-16T21:25:23.062Z,64.97
2019-04-16T21:28:03.426Z,64.37
2019-04-16T21:30:35.487Z,77.27
2019-04-16T21:33:20.548Z,67.57
2019-04-16T21:35:54.473Z,83.27
2019-04-16T21:38:58.317Z,97.70
2019-04-16T21:41:30.479Z,75.37
2019-04-16T21:44:03.136Z,65.80
2019-04-16T21:46:35.099Z,68.43
2019-04-16T21:49:08.680Z,71.13
2019-04-16T21:51:59.578Z,66.47
2019-04-16T21:54:31.810Z,79.40
2019-04-16T21:57:03.599Z,86.77
2019-04-16T21:59:35.451Z,106.17
2019-04-16T22:02:34.567Z,88.53
2019-04-16T22:05:08.348Z,86.23
2019-04-16T22:07:40.185Z,79.40
2019-04-16T22:10:12.041Z,68.03
2019-04-16T22:12:44.732Z,76.37
2019-04-16T22:15:17.543Z,67.47
2019-04-16T22:17:49.637Z,64.87
2019-04-16T22:20:21.807Z,55.80
2019-04-16T22:22:53.751Z,59.90
2019-04-16T22:25:26.902Z,77.53
2019-04-16T22:27:59.055Z,81.27
2019-04-16T22:30:31.530Z,83.17
2019-04-16T22:33:06.470Z,96.47
2019-04-16T22:35:37.081Z,75.17
2019-04-16T22:38:13.266Z,70.20
2019-04-16T22:41:07.440Z,103.33
2019-04-16T22:44:07.568Z,60.70
2019-04-16T22:46:42.618Z,71.97
2019-04-16T22:49:14.399Z,58.40
2019-04-16T22:51:46.189Z,48.47
2019-04-16T22:54:20.900Z,53.77
2019-04-16T22:57:04.152Z,77.53
2019-04-16T22:59:39.025Z,97.37
2019-04-16T23:02:16.638Z,74.33
2019-04-16T23:04:48.357Z,78.30
2019-04-16T23:07:20.230Z,81.17
2019-04-16T23:09:52.100Z,79.87
2019-04-16T23:12:27.217Z,70.30
2019-04-16T23:14:57.569Z,77.40
2019-04-16T23:17:30.334Z,65.83
2019-04-16T23:20:02.870Z,65.37
2019-04-16T23:22:35.733Z,79.43
2019-04-16T23:25:07.662Z,74.60
2019-04-16T23:27:39.522Z,77.70
2019-04-16T23:30:11.503Z,73.67
2019-04-16T23:32:44.033Z,49.70
2019-04-16T23:35:15.953Z,48.30
2019-04-16T23:37:47.747Z,32.63
2019-04-16T23:40:19.719Z,29.10
2019-04-16T23:43:08.874Z,32.80
2019-04-16T23:45:58.142Z,28.03
2019-04-16T23:48:37.461Z,34.90
2019-04-16T23:51:19.708Z,34.17
2019-04-16T23:53:58.272Z,36.67
2019-04-16T23:56:34.529Z,38.33
2019-04-16T23:59:17.111Z,51.37
